Ivins, Utah
Current Conditions -  °F | °C
As of 5:15 PM on Tuesday 25 Nov 2014 (Local Time) from KSGU Reporting Station
Clear Clear  
Wind Chill: 54°   Ceiling: Unl
Heat Index: 54°   Visibility: 10mi
Dew Point: 10°   Wind: 6mph
Humidity: 18%   Direction: 160°SSE
Pressure: 30.38"   Gusts: NA
Location:  37.17°N, 113.68°W
Report Text: KSGU 260015Z AUTO 16005KT 10SM CLR 12/M12 A3038 RMK AO1
Loading
Personal Weather Stations






























Interactive Weather Map New forecast layout! Learn more

10-Day Weather Forecast

Advertisements
Track Severe Weather on mobile